createdAt,value
2023-05-03T05:06:47.945Z,97374.25
2023-05-03T06:58:50.595Z,97380.75
2023-05-03T07:01:02.358Z,97384.28
2023-05-03T07:02:03.885Z,97385.97
2023-05-03T07:03:06.515Z,97388.06
2023-05-03T07:05:11.080Z,97376.13
2023-05-03T07:06:12.926Z,97384.72
2023-05-03T07:07:15.833Z,97384.72
2023-05-03T07:09:21.971Z,97378.72
2023-05-03T07:10:31.384Z,97379.25
2023-05-03T07:11:34.524Z,97380.09
2023-05-03T07:12:35.915Z,97380.88
2023-05-03T07:14:40.283Z,97377.88
2023-05-03T07:15:41.678Z,97376.38
2023-05-03T07:16:43.204Z,97378.63
2023-05-03T07:17:44.623Z,97385.28
2023-05-03T07:18:47.298Z,97383.19
2023-05-03T07:19:49.611Z,97372.72
2023-05-03T07:20:51.223Z,97381.31
2023-05-03T07:21:52.774Z,97385.53
2023-05-03T07:22:54.134Z,97373.38
2023-05-03T07:23:55.743Z,97378.03
2023-05-03T07:24:59.552Z,97371.44
2023-05-03T07:26:01.158Z,97380.28
2023-05-03T07:28:23.424Z,97377.19
2023-05-03T07:29:24.902Z,97380.63
2023-05-03T07:30:26.804Z,97348.00
2023-05-03T07:32:38.548Z,97370.06
2023-05-03T07:33:40.480Z,97370.34
2023-05-03T07:34:42.035Z,97369.38
2023-05-03T07:35:46.255Z,97363.50
2023-05-03T07:36:47.722Z,97373.34
2023-05-03T07:37:49.291Z,97360.28
2023-05-03T07:38:50.941Z,97372.94
2023-05-03T07:39:52.575Z,97367.31
2023-05-03T07:40:54.065Z,97370.84
2023-05-03T07:41:55.778Z,97370.28
2023-05-03T07:42:57.271Z,97379.16
2023-05-03T07:43:58.658Z,97369.16
2023-05-03T07:45:01.029Z,97371.47
2023-05-03T07:46:02.442Z,97371.25
2023-05-03T07:47:04.479Z,97365.72
2023-05-03T07:48:06.511Z,97366.34
2023-05-03T07:49:08.048Z,97380.72
2023-05-03T07:50:09.709Z,97377.13
2023-05-03T07:51:11.082Z,97381.22
2023-05-03T07:52:12.539Z,97374.50
2023-05-03T07:53:14.387Z,97332.41
2023-05-03T07:54:15.816Z,97363.41
2023-05-03T07:55:19.187Z,97369.22
2023-05-03T07:56:21.338Z,97376.66
2023-05-03T07:57:24.411Z,97374.06
2023-05-03T07:58:38.803Z,97354.34
2023-05-03T07:59:44.802Z,97369.91
2023-05-03T08:00:46.162Z,97357.59
2023-05-03T08:01:47.530Z,97363.44
2023-05-03T08:02:49.023Z,97361.09
2023-05-03T08:03:50.920Z,97369.19
2023-05-03T08:04:52.583Z,97348.13
2023-05-03T08:05:54.688Z,97365.19
2023-05-03T08:06:56.150Z,97358.66
2023-05-03T08:07:57.650Z,97366.53
2023-05-03T08:08:59.275Z,97365.03
2023-05-03T08:10:01.780Z,97365.63
2023-05-03T08:11:03.389Z,97363.44
2023-05-03T08:12:08.058Z,97362.91
2023-05-03T08:13:09.657Z,97363.88
2023-05-03T08:14:11.377Z,97359.31
2023-05-03T08:15:13.143Z,97365.81
2023-05-03T08:16:14.633Z,97358.41
2023-05-03T08:17:16.070Z,97370.22
2023-05-03T08:18:17.456Z,97365.44
2023-05-03T08:19:18.862Z,97359.97
2023-05-03T08:20:20.915Z,97372.88
2023-05-03T08:21:24.730Z,97363.34
2023-05-03T08:22:27.261Z,97372.50
2023-05-03T08:23:28.706Z,97364.41
2023-05-03T08:24:30.239Z,97368.84
2023-05-03T08:25:33.175Z,97357.91
2023-05-03T08:26:35.755Z,97375.34
2023-05-03T08:27:37.474Z,97375.34
2023-05-03T08:28:39.095Z,97372.16
2023-05-03T08:29:40.621Z,97373.38
2023-05-03T08:30:42.096Z,97366.50
2023-05-03T08:31:43.627Z,97365.97
2023-05-03T08:32:46.252Z,97359.59
2023-05-03T08:33:47.751Z,97363.91
2023-05-03T08:34:49.764Z,97365.63
2023-05-03T08:35:51.124Z,97366.25
2023-05-03T08:36:52.590Z,97370.72
2023-05-03T08:37:53.941Z,97365.03
2023-05-03T08:38:55.461Z,97364.03
2023-05-03T08:39:56.976Z,97369.13
2023-05-03T08:41:04.651Z,97367.72
2023-05-03T08:42:09.349Z,97369.16
2023-05-03T08:43:14.471Z,97375.16
2023-05-03T08:44:22.753Z,97374.97
2023-05-03T08:45:24.363Z,97369.53
2023-05-03T08:46:27.358Z,97361.56
2023-05-03T08:47:33.414Z,97367.44
2023-05-03T08:48:34.798Z,97367.72
2023-05-03T08:49:37.795Z,97368.53
2023-05-03T08:50:42.354Z,97371.44
2023-05-03T08:51:49.458Z,97377.22
2023-05-03T08:52:50.934Z,97357.56
2023-05-03T08:53:52.444Z,97370.84
2023-05-03T08:54:54.142Z,97375.72
2023-05-03T08:55:55.769Z,97371.09
2023-05-03T08:56:57.161Z,97379.06
2023-05-03T08:58:00.372Z,97383.59
2023-05-03T08:59:07.830Z,97382.09
2023-05-03T09:00:11.279Z,97382.28
2023-05-03T09:01:14.373Z,97381.06
2023-05-03T09:02:16.999Z,97361.41
2023-05-03T09:03:18.414Z,97369.59
2023-05-03T09:04:19.985Z,97379.25
2023-05-03T09:05:21.435Z,97375.50
2023-05-03T09:06:27.292Z,97376.00
2023-05-03T09:07:28.757Z,97367.19
2023-05-03T09:08:31.807Z,97372.03
2023-05-03T09:09:33.263Z,97365.53
2023-05-03T09:10:40.761Z,97374.81
2023-05-03T09:11:42.164Z,97370.56
2023-05-03T09:12:45.574Z,97366.91
2023-05-03T09:13:47.095Z,97367.25
2023-05-03T09:14:48.438Z,97365.91
2023-05-03T09:15:54.649Z,97359.84
2023-05-03T09:16:56.537Z,97362.81
2023-05-03T09:18:08.259Z,97370.47
2023-05-03T09:19:12.461Z,97369.78
2023-05-03T09:20:13.812Z,97360.38
2023-05-03T09:21:19.372Z,97372.09
2023-05-03T09:22:28.791Z,97360.22
2023-05-03T09:23:30.896Z,97364.91
2023-05-03T09:24:32.420Z,97364.25
2023-05-03T09:25:47.319Z,97373.81
2023-05-03T09:26:51.236Z,97361.66
2023-05-03T09:28:02.400Z,97374.34
2023-05-03T09:29:04.790Z,97363.50
2023-05-03T09:30:19.448Z,97360.59
2023-05-03T09:31:20.992Z,97362.56
2023-05-03T09:32:23.001Z,97367.41
2023-05-03T09:33:29.541Z,97362.09
2023-05-03T09:34:35.544Z,97363.13
2023-05-03T09:35:55.699Z,97364.63
2023-05-03T09:36:57.457Z,97351.31
2023-05-03T09:37:59.790Z,97355.56
2023-05-03T09:39:16.519Z,97363.97
2023-05-03T09:40:18.680Z,97358.03
2023-05-03T09:41:30.801Z,97352.28
2023-05-03T09:42:32.341Z,97363.22
2023-05-03T09:43:35.775Z,97354.25
2023-05-03T09:44:51.853Z,97368.19
2023-05-03T09:45:53.454Z,97362.34
2023-05-03T09:47:08.243Z,97364.84
2023-05-03T09:48:09.939Z,97358.56
2023-05-03T09:49:11.581Z,97364.28
2023-05-03T09:50:13.274Z,97365.44
2023-05-03T09:51:14.714Z,97366.88
2023-05-03T09:52:16.067Z,97369.34
2023-05-03T09:53:21.418Z,97357.28
2023-05-03T09:54:25.656Z,97361.97
2023-05-03T09:55:27.721Z,97368.53
2023-05-03T09:56:30.054Z,97370.19
2023-05-03T09:57:32.660Z,97374.47
2023-05-03T09:58:35.282Z,97368.13
2023-05-03T09:59:38.841Z,97368.75
2023-05-03T10:00:42.677Z,97371.81
2023-05-03T10:01:45.051Z,97373.19
2023-05-03T10:02:49.862Z,97370.72
2023-05-03T10:03:52.729Z,97369.91
2023-05-03T10:04:56.909Z,97361.94
2023-05-03T10:06:01.524Z,97360.84
2023-05-03T10:07:07.730Z,97363.19
2023-05-03T10:08:11.354Z,97366.94
2023-05-03T10:09:20.728Z,97371.94
2023-05-03T10:10:22.644Z,97370.13
2023-05-03T10:11:26.903Z,97374.34
2023-05-03T10:12:28.988Z,97359.41
2023-05-03T10:13:31.471Z,97366.72
2023-05-03T10:14:32.904Z,97362.94
2023-05-03T10:15:37.698Z,97360.06
2023-05-03T10:16:43.275Z,97364.78
2023-05-03T10:17:48.255Z,97361.53
2023-05-03T10:19:14.751Z,97358.97
2023-05-03T10:20:33.514Z,97358.47
2023-05-03T10:22:07.982Z,97360.03
2023-05-03T10:23:14.035Z,97359.19
2023-05-03T10:24:16.907Z,97360.28
2023-05-03T10:25:18.357Z,97355.75
2023-05-03T10:26:20.104Z,97354.19
2023-05-03T10:27:21.459Z,97357.38
2023-05-03T10:28:22.879Z,97354.66
2023-05-03T10:29:34.419Z,97357.50
2023-05-03T10:30:37.895Z,97352.94
2023-05-03T10:31:48.723Z,97345.06
2023-05-03T10:32:50.404Z,97346.97
2023-05-03T10:33:52.256Z,97346.25
2023-05-03T10:35:03.590Z,97352.66
2023-05-03T10:36:10.329Z,97352.97
2023-05-03T10:37:11.895Z,97346.47
2023-05-03T10:38:14.944Z,97344.03
2023-05-03T10:39:18.295Z,97327.19
2023-05-03T10:40:21.644Z,97346.31
2023-05-03T10:41:27.160Z,97350.22
2023-05-03T10:42:28.852Z,97338.88
2023-05-03T10:43:33.137Z,97341.25
2023-05-03T10:44:51.413Z,97333.06
2023-05-03T10:45:52.870Z,97331.28
2023-05-03T10:46:54.665Z,97336.34
2023-05-03T10:48:16.566Z,97331.81
2023-05-03T10:49:20.049Z,97333.66
2023-05-03T10:50:25.731Z,97341.88
2023-05-03T10:51:30.616Z,97334.81
2023-05-03T10:52:35.077Z,97330.09
2023-05-03T10:53:42.531Z,97331.63
2023-05-03T10:54:43.906Z,97326.53
2023-05-03T10:56:07.446Z,97328.59
2023-05-03T10:57:09.567Z,97332.19
2023-05-03T10:58:16.600Z,97332.41
2023-05-03T10:59:18.364Z,97316.84
2023-05-03T11:00:24.305Z,97333.59
2023-05-03T11:01:27.272Z,97329.88
2023-05-03T11:02:33.933Z,97318.34
2023-05-03T11:03:46.367Z,97323.66
2023-05-03T11:04:52.300Z,97316.34
2023-05-03T11:05:53.991Z,97321.56
2023-05-03T11:06:56.994Z,97307.47
2023-05-03T11:08:18.972Z,97310.41
2023-05-03T11:09:20.639Z,97313.81
2023-05-03T11:10:22.187Z,97309.25
2023-05-03T11:11:23.696Z,97308.66
2023-05-03T11:12:25.205Z,97308.75
2023-05-03T11:13:27.451Z,97299.41
2023-05-03T11:14:28.929Z,97305.16
2023-05-03T11:15:31.056Z,97307.22
2023-05-03T11:16:32.563Z,97305.28
2023-05-03T11:17:34.088Z,97300.00
2023-05-03T11:18:36.288Z,97301.38
2023-05-03T11:19:39.681Z,97297.84
2023-05-03T11:20:41.262Z,97294.56
2023-05-03T11:21:44.383Z,97292.63
2023-05-03T11:22:46.928Z,97295.72
2023-05-03T11:23:48.453Z,97282.47
2023-05-03T11:24:51.720Z,97293.25
2023-05-03T11:25:53.265Z,97287.78
2023-05-03T11:26:54.713Z,97292.25
2023-05-03T11:27:56.764Z,97286.34
2023-05-03T11:28:58.374Z,97291.81
2023-05-03T11:29:59.965Z,97294.50
2023-05-03T11:31:02.133Z,97289.00
2023-05-03T11:32:03.604Z,97289.72
2023-05-03T11:33:06.853Z,97296.13
2023-05-03T11:34:09.901Z,97288.03
2023-05-03T11:35:14.008Z,97289.19
2023-05-03T11:36:16.122Z,97294.09
2023-05-03T11:37:17.573Z,97285.56
2023-05-03T11:38:19.219Z,97292.28
2023-05-03T11:39:21.123Z,97292.00
2023-05-03T11:40:22.802Z,97276.72
2023-05-03T11:41:24.257Z,97292.22
2023-05-03T11:42:26.626Z,97295.75
2023-05-03T11:43:29.089Z,97289.56
2023-05-03T11:44:30.527Z,97292.50
2023-05-03T11:45:39.720Z,97283.34
2023-05-03T11:46:41.193Z,97286.50
2023-05-03T11:47:42.759Z,97278.53
2023-05-03T11:48:45.246Z,97289.72
2023-05-03T11:49:53.896Z,97284.84
2023-05-03T11:50:55.939Z,97284.34
2023-05-03T11:51:57.521Z,97283.81
2023-05-03T11:52:59.869Z,97267.75
2023-05-03T11:54:16.962Z,97277.41
2023-05-03T11:55:26.154Z,97270.91
2023-05-03T11:56:27.740Z,97278.72
2023-05-03T11:57:31.751Z,97273.28
2023-05-03T11:58:33.142Z,97274.97
2023-05-03T11:59:37.005Z,97273.78
2023-05-03T12:00:38.548Z,97276.41
2023-05-03T12:01:41.544Z,97273.88
2023-05-03T12:02:44.672Z,97268.88
2023-05-03T12:03:49.319Z,97276.78
2023-05-03T12:04:51.306Z,97274.97
2023-05-03T12:05:53.859Z,97274.53
2023-05-03T12:06:56.388Z,97282.22
2023-05-03T12:07:59.328Z,97280.53
2023-05-03T12:09:01.899Z,97274.84
2023-05-03T12:10:33.869Z,97279.47
2023-05-03T12:11:44.206Z,97281.16
2023-05-03T12:13:00.615Z,97282.22
2023-05-03T12:14:03.195Z,97283.63
2023-05-03T12:15:08.111Z,97290.09
2023-05-03T12:16:14.397Z,97280.03
2023-05-03T12:17:34.098Z,97264.00
2023-05-03T12:18:47.816Z,97276.94
2023-05-03T12:19:50.123Z,97260.97
2023-05-03T12:21:30.162Z,97276.56
2023-05-03T12:22:26.528Z,97277.63
2023-05-03T12:23:28.442Z,97274.84
2023-05-03T12:24:32.687Z,97273.94
2023-05-03T12:25:39.266Z,97260.06
2023-05-03T12:26:42.458Z,97265.38
2023-05-03T12:27:45.444Z,97262.03
2023-05-03T12:28:49.605Z,97267.16
2023-05-03T12:29:51.887Z,97258.22
2023-05-03T12:30:53.848Z,97248.91
2023-05-03T12:31:55.388Z,97262.66
2023-05-03T12:35:03.077Z,97256.41
2023-05-03T12:36:07.199Z,97248.72
2023-05-03T12:37:12.046Z,97252.78
2023-05-03T12:38:16.760Z,97254.16
2023-05-03T12:39:21.968Z,97251.13
2023-05-03T12:40:34.067Z,97261.97
2023-05-03T12:42:43.240Z,97253.56
2023-05-03T12:43:45.915Z,97242.09
2023-05-03T12:44:48.328Z,97258.84
2023-05-03T12:46:00.893Z,97245.25
2023-05-03T12:47:16.778Z,97252.47
2023-05-03T12:48:26.142Z,97250.16
2023-05-03T12:49:27.976Z,97248.69
2023-05-03T12:50:32.073Z,97252.97
2023-05-03T12:51:34.103Z,97242.66
2023-05-03T12:52:38.379Z,97234.94
2023-05-03T12:53:40.467Z,97236.44
2023-05-03T12:54:42.479Z,97234.50
2023-05-03T12:55:45.006Z,97244.31
2023-05-03T12:56:48.426Z,97240.00
2023-05-03T12:58:12.996Z,97243.19
2023-05-03T12:59:34.530Z,97239.53
2023-05-03T13:00:35.929Z,97237.72
2023-05-03T13:02:39.277Z,97235.19
2023-05-03T13:04:40.095Z,97242.13
2023-05-03T13:06:42.258Z,97234.59
2023-05-03T13:07:44.814Z,97235.47
2023-05-03T13:08:50.149Z,97235.50
2023-05-03T13:10:56.597Z,97228.31
2023-05-03T13:11:59.535Z,97234.00
2023-05-03T13:13:01.712Z,97223.31
2023-05-03T13:14:03.635Z,97229.84
2023-05-03T13:15:05.848Z,97221.28
2023-05-03T13:16:08.932Z,97230.25
2023-05-03T13:17:10.376Z,97220.38
2023-05-03T13:18:13.472Z,97220.56
2023-05-03T13:19:16.133Z,97219.59
2023-05-03T13:20:17.566Z,97218.50
2023-05-03T13:21:18.935Z,97221.84
2023-05-03T13:22:20.320Z,97228.78
2023-05-03T13:23:21.675Z,97222.47
2023-05-03T13:24:23.003Z,97208.88
2023-05-03T13:25:24.450Z,97214.34
2023-05-03T13:26:25.831Z,97219.78
2023-05-03T13:27:27.692Z,97207.38
2023-05-03T13:28:29.321Z,97186.72
2023-05-03T13:29:31.054Z,97209.59
2023-05-03T13:30:32.540Z,97205.72
2023-05-03T13:31:34.020Z,97197.06
2023-05-03T13:32:35.426Z,97203.97
2023-05-03T13:33:38.206Z,97198.94
2023-05-03T13:34:39.631Z,97207.53
2023-05-03T13:35:41.071Z,97201.91
2023-05-03T13:36:42.799Z,97199.59
2023-05-03T13:37:44.703Z,97189.97
2023-05-03T13:38:46.598Z,97200.13
2023-05-03T13:39:48.156Z,97198.47
2023-05-03T13:40:49.545Z,97195.63
2023-05-03T13:41:51.048Z,97193.97
2023-05-03T13:42:52.561Z,97200.38
2023-05-03T13:43:54.168Z,97185.03
2023-05-03T13:44:55.644Z,97202.31
2023-05-03T13:46:01.944Z,97201.88
2023-05-03T13:47:03.487Z,97196.16
2023-05-03T13:48:17.373Z,97190.97
2023-05-03T13:49:20.608Z,97193.84
2023-05-03T13:50:22.117Z,97193.75
2023-05-03T13:51:25.061Z,97197.53
2023-05-03T13:52:26.498Z,97183.09
2023-05-03T13:53:27.909Z,97192.94
2023-05-03T13:54:30.902Z,97193.91
2023-05-03T13:55:33.544Z,97186.84
2023-05-03T13:56:35.644Z,97189.16
2023-05-03T13:57:37.232Z,97185.88
2023-05-03T13:58:39.678Z,97177.34
2023-05-03T13:59:41.440Z,97182.91
2023-05-03T14:00:42.773Z,97184.72
2023-05-03T14:01:44.268Z,97182.09
2023-05-03T14:02:45.784Z,97175.16
2023-05-03T14:03:47.363Z,97187.69
2023-05-03T14:04:49.798Z,97180.59
2023-05-03T14:05:51.239Z,97163.94
2023-05-03T14:06:52.901Z,97184.72
2023-05-03T14:07:54.305Z,97178.47
2023-05-03T14:08:57.775Z,97173.84
2023-05-03T14:09:59.228Z,97176.81
2023-05-03T14:11:00.653Z,97163.75
2023-05-03T14:12:03.969Z,97178.81
2023-05-03T14:13:05.495Z,97168.41
2023-05-03T14:14:07.206Z,97168.47
2023-05-03T14:15:09.067Z,97167.00
2023-05-03T14:16:38.922Z,97164.03
2023-05-03T14:17:43.446Z,97167.88
2023-05-03T14:18:44.901Z,97172.22
2023-05-03T14:19:47.275Z,97164.53
2023-05-03T14:20:50.755Z,97164.56
2023-05-03T14:21:58.974Z,97164.03
2023-05-03T14:23:00.862Z,97160.19
2023-05-03T14:24:02.224Z,97161.63
2023-05-03T14:25:04.273Z,97154.22
2023-05-03T14:26:06.886Z,97155.06
2023-05-03T14:27:08.548Z,97153.41
2023-05-03T14:28:09.955Z,97150.88
2023-05-03T14:29:12.258Z,97162.59
2023-05-03T14:30:14.117Z,97164.69
2023-05-03T14:31:16.432Z,97152.34
2023-05-03T14:32:17.920Z,97154.94
2023-05-03T14:33:19.348Z,97154.00
2023-05-03T14:34:20.865Z,97149.97
2023-05-03T14:35:22.875Z,97146.88
2023-05-03T14:36:29.445Z,97153.53
2023-05-03T14:37:30.903Z,97141.81
2023-05-03T14:38:32.290Z,97147.88
2023-05-03T14:39:33.766Z,97140.72
2023-05-03T14:40:35.156Z,97140.84
2023-05-03T14:41:37.260Z,97141.16
2023-05-03T14:42:38.832Z,97131.97
2023-05-03T14:43:40.347Z,97135.38
2023-05-03T14:44:42.094Z,97125.38
2023-05-03T14:45:45.158Z,97136.69
2023-05-03T14:46:46.951Z,97131.91
2023-05-03T14:47:48.649Z,97131.00
2023-05-03T14:48:50.832Z,97126.50
2023-05-03T14:49:52.207Z,97133.53
2023-05-03T14:50:54.289Z,97132.66
2023-05-03T14:51:56.277Z,97124.81
2023-05-03T14:52:57.866Z,97136.34
2023-05-03T14:53:59.400Z,97128.28
2023-05-03T14:55:02.128Z,97132.03
2023-05-03T14:56:03.933Z,97132.22
2023-05-03T14:57:05.340Z,97133.47
2023-05-03T14:58:07.338Z,97138.16
2023-05-03T14:59:09.725Z,97136.16
2023-05-03T15:00:15.085Z,97137.13
2023-05-03T15:01:18.384Z,97135.44
2023-05-03T15:02:19.916Z,97135.59
2023-05-03T15:03:21.414Z,97123.13
2023-05-03T15:04:23.596Z,97133.38
2023-05-03T15:05:25.120Z,97138.91
2023-05-03T15:06:29.509Z,97134.25
2023-05-03T15:07:31.676Z,97130.59
2023-05-03T15:08:33.026Z,97131.72
2023-05-03T15:09:34.422Z,97125.94
2023-05-03T15:10:39.795Z,97134.00
2023-05-03T15:11:41.493Z,97137.00
2023-05-03T15:12:43.103Z,97130.75
2023-05-03T15:13:44.604Z,97130.50
2023-05-03T15:14:46.714Z,97133.44
2023-05-03T15:15:48.144Z,97127.78
2023-05-03T15:16:49.617Z,97126.66
2023-05-03T15:17:51.197Z,97133.06
2023-05-03T15:18:52.967Z,97134.94
2023-05-03T15:19:59.691Z,97140.38
2023-05-03T15:21:01.118Z,97131.84
2023-05-03T15:22:02.590Z,97132.22
2023-05-03T15:23:04.777Z,97133.19
2023-05-03T15:24:06.372Z,97134.34
2023-05-03T15:25:08.245Z,97130.53
2023-05-03T15:26:09.607Z,97133.66
2023-05-03T15:27:12.596Z,97133.41
2023-05-03T15:28:13.998Z,97133.50
2023-05-03T15:29:16.442Z,97129.06
2023-05-03T15:30:18.135Z,97124.00
2023-05-03T15:31:19.673Z,97131.16
2023-05-03T15:32:21.862Z,97133.38
2023-05-03T15:33:23.548Z,97128.72
2023-05-03T15:34:26.358Z,97119.16
2023-05-03T15:35:27.967Z,97124.16
2023-05-03T15:36:29.390Z,97132.97
2023-05-03T15:37:37.037Z,97117.53
2023-05-03T15:38:39.226Z,97124.91
2023-05-03T15:39:40.831Z,97131.47
2023-05-03T15:40:42.186Z,97121.06
2023-05-03T15:41:45.437Z,97123.97
2023-05-03T15:42:47.030Z,97119.00
2023-05-03T15:43:48.494Z,97121.94
2023-05-03T15:44:51.463Z,97115.28
2023-05-03T15:45:52.902Z,97117.53
2023-05-03T15:46:54.393Z,97125.81
2023-05-03T15:47:56.571Z,97115.16
2023-05-03T15:48:57.963Z,97117.81
2023-05-03T15:49:59.635Z,97119.09
2023-05-03T15:51:01.099Z,97115.13
2023-05-03T15:52:03.056Z,97113.75
2023-05-03T15:53:04.444Z,97114.72
2023-05-03T15:54:05.963Z,97120.91
2023-05-03T15:55:08.978Z,97114.00
2023-05-03T15:56:11.402Z,97116.34
2023-05-03T15:57:13.808Z,97109.66
2023-05-03T15:58:18.203Z,97104.50
2023-05-03T15:59:20.104Z,97113.94
2023-05-03T16:00:23.034Z,97115.53
2023-05-03T16:01:25.138Z,97120.75
2023-05-03T16:02:26.634Z,97117.38
2023-05-03T16:03:28.641Z,97118.97
2023-05-03T16:04:30.089Z,97117.53
2023-05-03T16:05:31.899Z,97119.91
2023-05-03T16:06:34.214Z,97113.00
2023-05-03T16:07:36.489Z,97112.97
2023-05-03T16:08:37.965Z,97118.53
2023-05-03T16:09:39.384Z,97113.75
2023-05-03T16:10:41.158Z,97113.00
2023-05-03T16:11:42.645Z,97120.81
2023-05-03T16:12:44.230Z,97120.59
2023-05-03T16:13:45.807Z,97115.91
2023-05-03T16:14:47.264Z,97109.09
2023-05-03T16:15:52.182Z,97108.72
2023-05-03T16:16:54.146Z,97111.22
2023-05-03T16:17:55.653Z,97109.69
2023-05-03T16:18:57.157Z,97116.13
2023-05-03T16:19:58.531Z,97116.88
2023-05-03T16:21:01.326Z,97111.78
2023-05-03T16:22:03.464Z,97119.34
2023-05-03T16:23:04.845Z,97103.16
2023-05-03T16:24:06.315Z,97110.31
2023-05-03T16:25:10.623Z,97106.28
2023-05-03T16:26:14.336Z,97108.69
2023-05-03T16:27:15.851Z,97110.34
2023-05-03T16:28:17.737Z,97101.50
2023-05-03T16:29:19.524Z,97109.38
2023-05-03T16:30:20.944Z,97103.94
2023-05-03T16:31:23.094Z,97105.59
2023-05-03T16:32:26.040Z,97111.44
2023-05-03T16:33:27.451Z,97116.47
2023-05-03T16:34:28.813Z,97097.91
2023-05-03T16:35:30.351Z,97091.03
2023-05-03T16:36:33.208Z,97096.13
2023-05-03T16:37:37.196Z,97098.31
2023-05-03T16:38:38.607Z,97098.78
2023-05-03T16:39:40.155Z,97096.25
2023-05-03T16:40:42.478Z,97092.59
2023-05-03T16:41:43.977Z,97087.84
2023-05-03T16:42:48.823Z,97088.94
2023-05-03T16:43:50.304Z,97088.13
2023-05-03T16:44:52.096Z,97088.81
2023-05-03T16:46:00.859Z,97079.41
2023-05-03T16:47:02.495Z,97094.47
2023-05-03T16:48:06.047Z,97089.63
2023-05-03T16:49:08.881Z,97094.47
2023-05-03T16:50:10.346Z,97083.06
2023-05-03T16:51:11.841Z,97083.22
2023-05-03T16:52:13.197Z,97094.34
2023-05-03T16:53:14.553Z,97084.94
2023-05-03T16:54:16.842Z,97089.88
2023-05-03T16:55:22.702Z,97085.91
2023-05-03T16:56:24.882Z,97083.09
2023-05-03T16:57:26.223Z,97082.84
2023-05-03T16:58:27.677Z,97085.38
2023-05-03T16:59:29.255Z,97077.41
2023-05-03T17:00:30.581Z,97080.97
2023-05-03T17:01:32.251Z,97082.22
2023-05-03T17:02:37.852Z,97084.13
2023-05-03T17:03:41.384Z,97085.19
2023-05-03T17:04:42.781Z,97087.69
2023-05-03T17:05:44.131Z,97081.38
2023-05-03T17:06:46.320Z,97086.19
2023-05-03T17:07:47.672Z,97086.53
2023-05-03T17:08:49.127Z,97087.94
2023-05-03T17:09:51.005Z,97083.28
2023-05-03T17:10:54.273Z,97080.06
2023-05-03T17:11:56.211Z,97084.06
2023-05-03T17:13:01.295Z,97075.38
2023-05-03T17:14:02.874Z,97082.22
2023-05-03T17:15:04.657Z,97078.06
2023-05-03T17:16:11.382Z,97072.56
2023-05-03T17:17:12.744Z,97087.59
2023-05-03T17:18:14.202Z,97084.31
2023-05-03T17:19:15.665Z,97082.22
2023-05-03T17:20:17.295Z,97081.28
2023-05-03T17:21:19.080Z,97080.00
2023-05-03T17:22:20.703Z,97068.38
2023-05-03T17:23:22.221Z,97068.38
2023-05-03T17:24:23.566Z,97080.25
2023-05-03T17:25:24.942Z,97071.25
2023-05-03T17:26:26.460Z,97070.63
2023-05-03T17:27:27.962Z,97072.94
2023-05-03T17:28:29.867Z,97074.13
2023-05-03T17:29:31.382Z,97077.19
2023-05-03T17:30:33.118Z,97086.91
2023-05-03T17:31:34.538Z,97076.19
2023-05-03T17:45:19.500Z,97081.19
